Time;durP1;ratioP1;P1;durP2;ratioP2;P2;SDS_P1;SDS_P2;PMS_P1;PMS_P2;Temp;Humidity;BMP_temperature;BMP_pressure;BME280_temperature;BME280_humidity;BME280_pressure;Samples;Min_cycle;Max_cycle;Signal;HPM_P1;HPM_P2
2023/11/12 00:00:19;;;;;;;7.60;4.40;;;;;;;;;;5066183;28;20020;-86
2023/11/12 00:02:44;;;;;;;8.37;4.33;;;;;;;;;;5054453;28;20033;-85
2023/11/12 00:05:11;;;;;;;11.00;4.70;;;;;;;;;;5054173;28;20036;-86
2023/11/12 00:07:37;;;;;;;12.27;5.23;;;;;;;;;;5055241;28;20086;-85
2023/11/12 00:10:02;;;;;;;11.40;4.63;;;;;;;;;;5054413;28;20020;-86
2023/11/12 00:12:28;;;;;;;7.80;4.40;;;;;;;;;;5054505;28;20017;-85
2023/11/12 00:14:53;;;;;;;9.17;4.70;;;;;;;;;;5054400;28;20024;-85
2023/11/12 00:17:19;;;;;;;10.43;4.47;;;;;;;;;;5062372;28;20025;-85
2023/11/12 00:19:45;;;;;;;10.20;4.80;;;;;;;;;;5054236;28;20037;-85
2023/11/12 00:22:12;;;;;;;11.03;5.10;;;;;;;;;;5045107;28;20055;-85
2023/11/12 00:24:37;;;;;;;11.57;5.80;;;;;;;;;;5056985;28;20426;-85
2023/11/12 00:27:03;;;;;;;12.23;4.97;;;;;;;;;;5061549;28;20029;-85
2023/11/12 00:29:28;;;;;;;9.67;4.77;;;;;;;;;;5054766;28;20056;-85
2023/11/12 00:31:53;;;;;;;7.07;4.13;;;;;;;;;;5073743;28;20027;-85
2023/11/12 00:34:18;;;;;;;7.83;4.17;;;;;;;;;;5074193;28;20021;-85
2023/11/12 00:36:44;;;;;;;8.93;4.70;;;;;;;;;;5074891;28;20104;-85
2023/11/12 00:39:09;;;;;;;9.93;4.60;;;;;;;;;;5071900;28;20376;-85
2023/11/12 00:41:37;;;;;;;8.50;4.43;;;;;;;;;;5063341;28;20070;-85
2023/11/12 00:44:02;;;;;;;8.67;4.50;;;;;;;;;;5053398;28;20544;-85
2023/11/12 00:46:28;;;;;;;9.23;4.77;;;;;;;;;;5053900;28;20044;-85
2023/11/12 00:48:53;;;;;;;7.33;4.13;;;;;;;;;;5053009;28;20056;-85
2023/11/12 00:51:18;;;;;;;6.87;4.07;;;;;;;;;;5053378;28;20178;-85
2023/11/12 00:53:45;;;;;;;9.00;3.93;;;;;;;;;;5053798;28;20522;-84
2023/11/12 00:56:10;;;;;;;10.53;4.47;;;;;;;;;;5067134;28;20016;-85
2023/11/12 00:58:35;;;;;;;6.60;3.50;;;;;;;;;;5052985;28;20029;-85
2023/11/12 01:01:00;;;;;;;9.20;4.43;;;;;;;;;;5071139;28;20016;-85
2023/11/12 01:03:32;;;;;;;7.93;3.93;;;;;;;;;;5063317;28;20025;-85
2023/11/12 01:05:57;;;;;;;6.78;3.75;;;;;;;;;;5067562;28;20368;-84
2023/11/12 01:08:22;;;;;;;6.87;3.80;;;;;;;;;;5061051;28;20082;-85
2023/11/12 01:10:48;;;;;;;8.23;4.23;;;;;;;;;;5074734;28;20088;-82
2023/11/12 01:13:13;;;;;;;8.10;3.93;;;;;;;;;;5039391;28;20036;-85
2023/11/12 01:15:42;;;;;;;10.57;4.03;;;;;;;;;;5056779;28;20053;-84
2023/11/12 01:18:09;;;;;;;8.63;4.40;;;;;;;;;;5057711;28;20020;-84
2023/11/12 01:20:36;;;;;;;10.17;4.90;;;;;;;;;;5062004;28;20064;-84
2023/11/12 01:23:01;;;;;;;11.07;4.50;;;;;;;;;;5068255;28;20017;-84
2023/11/12 01:25:26;;;;;;;12.53;5.20;;;;;;;;;;5053284;28;20032;-84
2023/11/12 01:27:52;;;;;;;10.13;5.07;;;;;;;;;;5057746;28;20328;-84
2023/11/12 01:30:17;;;;;;;11.07;5.37;;;;;;;;;;5074111;28;20025;-84
2023/11/12 01:32:42;;;;;;;12.07;5.13;;;;;;;;;;5072595;28;20021;-85
2023/11/12 01:35:08;;;;;;;11.60;4.93;;;;;;;;;;5072705;28;20059;-84
2023/11/12 01:37:40;;;;;;;9.47;4.77;;;;;;;;;;5070234;28;20029;-84
2023/11/12 01:40:06;;;;;;;11.57;5.17;;;;;;;;;;5055313;28;20021;-82
2023/11/12 01:42:31;;;;;;;11.97;5.07;;;;;;;;;;5057511;28;20062;-84
2023/11/12 01:44:59;;;;;;;10.83;5.27;;;;;;;;;;5072291;28;20040;-83
2023/11/12 01:47:25;;;;;;;13.67;5.47;;;;;;;;;;5054632;28;20459;-84
2023/11/12 01:49:51;;;;;;;12.23;5.00;;;;;;;;;;5052519;28;20044;-84
2023/11/12 01:52:17;;;;;;;12.60;4.77;;;;;;;;;;5053730;28;20439;-84
2023/11/12 01:54:43;;;;;;;12.60;5.83;;;;;;;;;;5052387;28;20044;-84
2023/11/12 01:57:08;;;;;;;9.17;4.73;;;;;;;;;;5052002;28;20036;-84
2023/11/12 01:59:35;;;;;;;8.00;4.20;;;;;;;;;;5051819;28;20032;-84
2023/11/12 02:02:02;;;;;;;10.40;5.33;;;;;;;;;;5052492;28;20404;-84
2023/11/12 02:04:27;;;;;;;10.30;4.93;;;;;;;;;;5051776;28;20017;-84
2023/11/12 02:06:53;;;;;;;8.90;4.27;;;;;;;;;;5061292;28;20472;-84
2023/11/12 02:09:24;;;;;;;11.00;5.03;;;;;;;;;;5058758;28;20020;-84
2023/11/12 02:11:54;;;;;;;9.35;4.63;;;;;;;;;;5063116;28;20024;-84
2023/11/12 02:14:20;;;;;;;7.53;4.10;;;;;;;;;;5052575;28;20037;-84
2023/11/12 02:16:46;;;;;;;13.23;5.27;;;;;;;;;;5058720;28;20886;-83
2023/11/12 02:19:24;;;;;;;9.43;4.50;;;;;;;;;;5058347;28;20017;-84
2023/11/12 02:21:49;;;;;;;9.03;5.17;;;;;;;;;;5050495;28;20105;-84
2023/11/12 02:24:23;;;;;;;8.53;4.73;;;;;;;;;;5063917;28;20115;-84
2023/11/12 02:26:49;;;;;;;10.10;5.20;;;;;;;;;;5052689;28;20027;-84
2023/11/12 02:29:16;;;;;;;12.17;5.30;;;;;;;;;;5059742;28;20017;-84
2023/11/12 02:31:44;;;;;;;10.40;4.87;;;;;;;;;;5099424;28;20017;-84
2023/11/12 02:34:09;;;;;;;13.27;5.63;;;;;;;;;;5052484;28;20109;-84
2023/11/12 02:36:35;;;;;;;12.80;5.80;;;;;;;;;;5051344;28;20048;-84
2023/11/12 02:39:00;;;;;;;10.67;5.97;;;;;;;;;;5059537;28;20115;-84
2023/11/12 02:41:26;;;;;;;10.00;5.27;;;;;;;;;;5062107;28;20058;-84
2023/11/12 02:43:52;;;;;;;14.93;5.93;;;;;;;;;;5051024;28;20499;-84
2023/11/12 02:46:17;;;;;;;9.60;5.70;;;;;;;;;;5051622;28;20016;-84
2023/11/12 02:48:59;;;;;;;12.97;5.67;;;;;;;;;;5051000;28;20024;-83
2023/11/12 02:51:24;;;;;;;14.80;5.87;;;;;;;;;;5039375;28;20451;-84
2023/11/12 02:53:49;;;;;;;11.23;6.00;;;;;;;;;;5065260;28;20024;-83
2023/11/12 02:56:15;;;;;;;16.00;6.30;;;;;;;;;;5065181;28;20033;-84
2023/11/12 02:58:40;;;;;;;17.43;7.47;;;;;;;;;;5062692;28;20024;-84
2023/11/12 03:01:05;;;;;;;16.80;6.97;;;;;;;;;;5058189;28;20044;-84
2023/11/12 03:03:30;;;;;;;13.07;5.97;;;;;;;;;;5061046;28;20077;-84
2023/11/12 03:05:55;;;;;;;13.17;6.60;;;;;;;;;;5071019;28;20020;-84
2023/11/12 03:08:21;;;;;;;13.47;6.20;;;;;;;;;;5062867;28;20025;-84
2023/11/12 03:10:46;;;;;;;17.87;7.07;;;;;;;;;;5052285;28;20017;-84
2023/11/12 03:13:11;;;;;;;16.17;7.57;;;;;;;;;;5050916;28;20009;-84
2023/11/12 03:15:39;;;;;;;19.70;7.93;;;;;;;;;;5050332;28;20031;-84
2023/11/12 03:18:05;;;;;;;17.13;7.77;;;;;;;;;;5050743;28;20021;-85
2023/11/12 03:20:30;;;;;;;17.10;7.67;;;;;;;;;;5051153;28;20025;-84
2023/11/12 03:22:56;;;;;;;18.60;7.93;;;;;;;;;;5052224;28;20025;-84
2023/11/12 03:25:21;;;;;;;16.83;7.90;;;;;;;;;;5050979;28;20021;-84
2023/11/12 03:27:46;;;;;;;20.10;8.50;;;;;;;;;;5053549;28;20021;-84
2023/11/12 03:30:12;;;;;;;20.07;8.13;;;;;;;;;;5054818;28;20048;-84
2023/11/12 03:32:38;;;;;;;17.63;6.97;;;;;;;;;;5070246;28;20476;-84
2023/11/12 03:35:04;;;;;;;17.23;7.90;;;;;;;;;;5054721;28;20191;-84
2023/11/12 03:37:29;;;;;;;15.60;7.60;;;;;;;;;;5054457;28;20036;-84
2023/11/12 03:39:56;;;;;;;18.73;8.20;;;;;;;;;;5053122;28;20025;-84
2023/11/12 03:42:21;;;;;;;15.07;7.43;;;;;;;;;;5053458;28;20745;-83
2023/11/12 03:44:49;;;;;;;14.07;6.85;;;;;;;;;;5054182;28;20024;-85
2023/11/12 03:47:14;;;;;;;13.68;6.85;;;;;;;;;;5054127;28;20035;-85
2023/11/12 03:49:40;;;;;;;16.83;7.70;;;;;;;;;;5054102;28;20020;-84
2023/11/12 03:52:05;;;;;;;12.45;6.45;;;;;;;;;;5054780;28;20353;-84
2023/11/12 03:54:31;;;;;;;15.98;7.47;;;;;;;;;;5054609;28;20032;-85
2023/11/12 03:56:56;;;;;;;17.15;6.63;;;;;;;;;;5054448;28;20013;-84
2023/11/12 03:59:21;;;;;;;14.25;6.35;;;;;;;;;;5055621;28;20028;-85
2023/11/12 04:01:46;;;;;;;15.65;5.97;;;;;;;;;;5055338;28;20023;-85
2023/11/12 04:04:12;;;;;;;10.90;5.95;;;;;;;;;;5054100;28;20112;-84
2023/11/12 04:06:38;;;;;;;13.25;6.38;;;;;;;;;;5054130;28;20067;-84
2023/11/12 04:09:06;;;;;;;12.18;5.72;;;;;;;;;;5055555;28;20045;-85
2023/11/12 04:11:35;;;;;;;15.07;6.68;;;;;;;;;;5054224;28;20021;-85
2023/11/12 04:14:00;;;;;;;13.88;6.20;;;;;;;;;;5054052;28;20385;-84
2023/11/12 04:16:25;;;;;;;13.48;5.93;;;;;;;;;;5055472;28;20025;-84
2023/11/12 04:18:50;;;;;;;13.18;6.00;;;;;;;;;;5053732;28;20016;-84
2023/11/12 04:21:16;;;;;;;12.13;5.47;;;;;;;;;;5053539;28;20469;-83
2023/11/12 04:23:44;;;;;;;12.23;6.38;;;;;;;;;;5068112;28;20357;-84
2023/11/12 04:26:10;;;;;;;11.20;5.75;;;;;;;;;;5050104;28;20553;-84
2023/11/12 04:28:35;;;;;;;12.13;5.50;;;;;;;;;;5053691;28;20137;-84
2023/11/12 04:31:00;;;;;;;11.50;5.80;;;;;;;;;;5053376;28;20032;-84
2023/11/12 04:33:25;;;;;;;11.27;5.53;;;;;;;;;;5053857;28;20032;-84
2023/11/12 04:35:52;;;;;;;11.35;5.63;;;;;;;;;;5051409;28;20023;-84
2023/11/12 04:38:17;;;;;;;11.07;5.57;;;;;;;;;;5041394;28;20029;-85
2023/11/12 04:40:43;;;;;;;15.43;6.32;;;;;;;;;;5053192;28;20120;-84
2023/11/12 04:43:09;;;;;;;12.00;5.85;;;;;;;;;;5053689;28;20027;-85
2023/11/12 04:45:34;;;;;;;9.35;4.88;;;;;;;;;;5053435;28;20021;-84
2023/11/12 04:48:00;;;;;;;8.60;4.67;;;;;;;;;;5053587;28;20021;-84
2023/11/12 04:50:25;;;;;;;9.17;4.67;;;;;;;;;;5053144;28;20071;-85
2023/11/12 04:52:53;;;;;;;9.43;4.32;;;;;;;;;;5053289;28;20674;-84
2023/11/12 04:55:19;;;;;;;9.23;4.80;;;;;;;;;;5053821;28;20391;-84
2023/11/12 04:57:44;;;;;;;9.30;4.55;;;;;;;;;;5053111;28;20436;-84
2023/11/12 05:00:11;;;;;;;9.80;3.80;;;;;;;;;;5053709;28;20025;-84
2023/11/12 05:02:36;;;;;;;9.20;4.20;;;;;;;;;;5053081;28;20472;-85
2023/11/12 05:05:01;;;;;;;10.70;4.90;;;;;;;;;;5038682;28;20074;-84
2023/11/12 05:07:27;;;;;;;7.63;4.03;;;;;;;;;;5053398;28;20159;-84
2023/11/12 05:09:52;;;;;;;9.75;4.28;;;;;;;;;;5054017;28;20497;-84
2023/11/12 05:12:18;;;;;;;8.30;4.50;;;;;;;;;;5053059;28;20445;-84
2023/11/12 05:14:43;;;;;;;11.38;4.80;;;;;;;;;;5052842;28;20047;-85
2023/11/12 05:17:08;;;;;;;10.23;5.07;;;;;;;;;;5053471;28;20051;-85
2023/11/12 05:19:33;;;;;;;9.07;4.80;;;;;;;;;;5052860;28;20495;-84
2023/11/12 05:21:59;;;;;;;8.38;4.38;;;;;;;;;;5053084;28;20035;-84
2023/11/12 05:24:24;;;;;;;7.57;4.00;;;;;;;;;;5061259;28;20053;-85
2023/11/12 05:26:49;;;;;;;9.03;4.50;;;;;;;;;;5049461;28;20088;-85
2023/11/12 05:29:15;;;;;;;8.82;4.28;;;;;;;;;;5051801;28;20021;-84
2023/11/12 05:31:40;;;;;;;9.23;4.53;;;;;;;;;;5053853;28;20151;-85
2023/11/12 05:34:05;;;;;;;9.47;4.67;;;;;;;;;;5051890;28;20357;-84
2023/11/12 05:36:31;;;;;;;8.03;4.07;;;;;;;;;;5052849;28;20025;-84
2023/11/12 05:38:56;;;;;;;9.10;4.07;;;;;;;;;;5052333;28;20036;-85
2023/11/12 05:41:21;;;;;;;8.68;3.60;;;;;;;;;;5052392;28;20047;-85
2023/11/12 05:43:46;;;;;;;8.07;4.47;;;;;;;;;;5053689;28;20029;-84
2023/11/12 05:46:12;;;;;;;10.88;4.75;;;;;;;;;;5052053;28;20025;-85
2023/11/12 05:48:37;;;;;;;9.38;4.45;;;;;;;;;;5052454;28;20480;-84
2023/11/12 05:51:03;;;;;;;8.20;4.50;;;;;;;;;;5051522;28;20032;-85
2023/11/12 05:53:28;;;;;;;9.27;4.88;;;;;;;;;;5052536;28;20028;-85
2023/11/12 05:55:54;;;;;;;8.13;4.40;;;;;;;;;;5050189;28;20495;-83
2023/11/12 05:58:19;;;;;;;8.30;3.88;;;;;;;;;;5052047;28;20025;-84
2023/11/12 06:00:44;;;;;;;12.10;4.88;;;;;;;;;;5051862;28;20039;-84
2023/11/12 06:03:10;;;;;;;7.78;4.03;;;;;;;;;;5051894;28;20028;-84
2023/11/12 06:05:35;;;;;;;6.82;3.20;;;;;;;;;;5052754;28;20021;-84
2023/11/12 06:08:03;;;;;;;8.30;4.07;;;;;;;;;;5051529;28;20126;-84
2023/11/12 06:10:29;;;;;;;10.68;4.68;;;;;;;;;;5039204;28;20055;-84
2023/11/12 06:12:55;;;;;;;7.80;4.15;;;;;;;;;;5051942;28;20508;-84
2023/11/12 06:15:25;;;;;;;6.07;3.17;;;;;;;;;;5051706;28;20618;-84
2023/11/12 06:17:51;;;;;;;6.85;3.60;;;;;;;;;;5051634;28;20036;-85
2023/11/12 06:20:16;;;;;;;8.25;4.32;;;;;;;;;;5050976;28;20033;-85
2023/11/12 06:22:44;;;;;;;7.65;3.97;;;;;;;;;;5051638;28;20043;-84
2023/11/12 06:25:11;;;;;;;8.25;4.22;;;;;;;;;;5051536;28;20033;-84
2023/11/12 06:27:40;;;;;;;7.95;4.07;;;;;;;;;;5051547;28;20492;-84
2023/11/12 06:30:08;;;;;;;9.15;3.95;;;;;;;;;;5051626;28;20408;-83
2023/11/12 06:32:34;;;;;;;6.97;3.75;;;;;;;;;;5050776;28;20021;-84
2023/11/12 06:34:59;;;;;;;8.23;4.18;;;;;;;;;;5042388;28;20028;-84
2023/11/12 06:37:24;;;;;;;7.30;4.22;;;;;;;;;;5049705;28;20036;-84
2023/11/12 06:39:50;;;;;;;6.85;3.67;;;;;;;;;;5050481;28;20059;-84
2023/11/12 06:42:15;;;;;;;6.57;3.70;;;;;;;;;;5050724;28;20400;-84
2023/11/12 06:44:40;;;;;;;8.40;3.97;;;;;;;;;;5050400;28;20025;-84
2023/11/12 06:47:06;;;;;;;7.32;3.53;;;;;;;;;;5050720;28;20029;-83
2023/11/12 06:49:32;;;;;;;6.53;3.60;;;;;;;;;;5051138;28;20028;-83
2023/11/12 06:51:57;;;;;;;7.73;4.23;;;;;;;;;;5051453;28;20082;-84
2023/11/12 06:54:23;;;;;;;8.13;3.93;;;;;;;;;;5051278;28;20044;-83
2023/11/12 06:56:48;;;;;;;7.50;3.83;;;;;;;;;;5050931;28;20520;-83
2023/11/12 06:59:13;;;;;;;8.80;4.27;;;;;;;;;;5052343;28;20060;-85
2023/11/12 07:01:39;;;;;;;7.23;3.73;;;;;;;;;;5051941;28;20017;-85
2023/11/12 07:04:06;;;;;;;7.93;3.80;;;;;;;;;;5050326;28;20021;-84
2023/11/12 07:06:31;;;;;;;8.43;3.50;;;;;;;;;;5050903;28;20017;-84
2023/11/12 07:08:57;;;;;;;8.33;3.83;;;;;;;;;;5052595;28;20535;-85
2023/11/12 07:11:22;;;;;;;7.67;3.80;;;;;;;;;;5050769;28;20025;-85
2023/11/12 07:13:47;;;;;;;6.88;3.40;;;;;;;;;;5050340;28;20083;-84
2023/11/12 07:16:21;;;;;;;7.63;3.80;;;;;;;;;;5051781;28;20025;-85
2023/11/12 07:18:46;;;;;;;7.65;3.67;;;;;;;;;;5051423;28;20044;-84
2023/11/12 07:21:12;;;;;;;5.57;3.00;;;;;;;;;;5050341;28;20032;-84
2023/11/12 07:23:37;;;;;;;5.72;3.03;;;;;;;;;;5050497;28;20059;-84
2023/11/12 07:26:03;;;;;;;8.75;4.18;;;;;;;;;;5049239;28;20204;-84
2023/11/12 07:28:29;;;;;;;7.13;4.25;;;;;;;;;;5050065;28;20032;-84
2023/11/12 07:30:54;;;;;;;7.20;3.60;;;;;;;;;;5048199;28;20102;-83
2023/11/12 07:33:21;;;;;;;8.67;4.37;;;;;;;;;;5049724;28;20017;-84
2023/11/12 07:35:47;;;;;;;7.27;3.97;;;;;;;;;;5050389;28;20024;-84
2023/11/12 07:38:12;;;;;;;5.93;3.43;;;;;;;;;;5049201;28;20122;-84
2023/11/12 07:40:37;;;;;;;8.38;4.00;;;;;;;;;;5049226;28;20032;-84
2023/11/12 07:43:05;;;;;;;7.73;3.83;;;;;;;;;;5045450;28;20039;-84
2023/11/12 07:45:30;;;;;;;7.60;4.10;;;;;;;;;;5049402;28;20029;-84
2023/11/12 07:47:55;;;;;;;8.97;4.10;;;;;;;;;;5049768;28;20485;-84
2023/11/12 07:50:21;;;;;;;5.80;3.50;;;;;;;;;;5049533;28;20053;-84
2023/11/12 07:52:46;;;;;;;5.75;3.45;;;;;;;;;;5051214;28;20376;-82
2023/11/12 07:55:12;;;;;;;8.90;4.70;;;;;;;;;;5050017;28;20380;-84
2023/11/12 07:57:37;;;;;;;15.65;7.40;;;;;;;;;;5050006;28;20029;-84
2023/11/12 08:00:02;;;;;;;22.53;11.07;;;;;;;;;;5048293;28;20064;-84
2023/11/12 08:02:28;;;;;;;8.27;4.50;;;;;;;;;;5049778;28;20036;-84
2023/11/12 08:04:53;;;;;;;9.38;3.50;;;;;;;;;;5049906;28;20064;-84
2023/11/12 08:07:18;;;;;;;5.55;3.00;;;;;;;;;;5050010;28;20031;-84
2023/11/12 08:09:47;;;;;;;5.90;3.10;;;;;;;;;;5051181;28;20014;-84
2023/11/12 08:12:16;;;;;;;5.80;2.97;;;;;;;;;;5051722;28;20404;-84
2023/11/12 08:14:41;;;;;;;6.67;3.63;;;;;;;;;;5051184;28;20552;-84
2023/11/12 08:17:06;;;;;;;9.13;5.70;;;;;;;;;;5055860;28;20035;-84
2023/11/12 08:19:32;;;;;;;8.20;4.35;;;;;;;;;;5052614;28;20021;-84
2023/11/12 08:21:59;;;;;;;8.18;4.60;;;;;;;;;;5054219;28;20405;-83
2023/11/12 08:24:24;;;;;;;7.70;4.30;;;;;;;;;;5054512;28;20093;-85
2023/11/12 08:26:49;;;;;;;7.75;4.13;;;;;;;;;;5043303;28;20036;-84
2023/11/12 08:29:18;;;;;;;6.45;3.25;;;;;;;;;;5051298;28;20052;-84
2023/11/12 08:31:43;;;;;;;5.38;2.78;;;;;;;;;;5052866;28;20393;-85
2023/11/12 08:34:09;;;;;;;6.97;3.45;;;;;;;;;;5049795;28;20028;-84
2023/11/12 08:36:34;;;;;;;5.50;2.80;;;;;;;;;;5051318;28;20167;-84
2023/11/12 08:39:03;;;;;;;7.00;3.57;;;;;;;;;;5052246;28;20029;-84
2023/11/12 08:41:29;;;;;;;5.75;3.47;;;;;;;;;;5052976;28;20441;-84
2023/11/12 08:43:54;;;;;;;5.25;2.85;;;;;;;;;;5054725;28;20027;-85
2023/11/12 08:46:20;;;;;;;6.50;3.38;;;;;;;;;;5052775;28;20170;-84
2023/11/12 08:48:45;;;;;;;6.13;2.93;;;;;;;;;;5052907;28;20107;-84
2023/11/12 08:51:14;;;;;;;6.73;4.00;;;;;;;;;;5044177;28;20457;-85
2023/11/12 08:53:40;;;;;;;5.97;3.40;;;;;;;;;;5054477;28;20025;-85
2023/11/12 08:56:06;;;;;;;5.70;3.43;;;;;;;;;;5050880;28;20088;-84
2023/11/12 08:58:31;;;;;;;5.93;3.47;;;;;;;;;;5050420;28;20029;-84
2023/11/12 09:00:57;;;;;;;7.20;3.97;;;;;;;;;;5052725;28;20033;-85
2023/11/12 09:03:23;;;;;;;7.70;4.07;;;;;;;;;;5053052;28;20477;-85
2023/11/12 09:05:48;;;;;;;7.97;4.20;;;;;;;;;;5052909;28;20036;-84
2023/11/12 09:08:13;;;;;;;8.67;4.70;;;;;;;;;;5052578;28;20032;-84
2023/11/12 09:10:38;;;;;;;9.23;4.57;;;;;;;;;;5051877;28;20047;-84
2023/11/12 09:13:04;;;;;;;9.53;4.60;;;;;;;;;;5051292;28;20028;-85
2023/11/12 09:15:29;;;;;;;9.10;4.38;;;;;;;;;;5053235;28;20131;-85
2023/11/12 09:17:55;;;;;;;7.35;3.83;;;;;;;;;;5054127;28;20376;-85
2023/11/12 09:20:22;;;;;;;9.20;4.30;;;;;;;;;;5052547;28;20104;-85
2023/11/12 09:22:48;;;;;;;7.67;4.17;;;;;;;;;;5051958;28;20036;-84
2023/11/12 09:25:13;;;;;;;7.65;4.63;;;;;;;;;;5053217;28;20107;-84
2023/11/12 09:27:38;;;;;;;8.75;4.88;;;;;;;;;;5049527;28;20377;-84
2023/11/12 09:30:04;;;;;;;8.02;4.05;;;;;;;;;;5052059;28;20017;-85
2023/11/12 09:32:30;;;;;;;9.70;4.60;;;;;;;;;;5052505;28;20122;-86
2023/11/12 09:34:55;;;;;;;8.10;3.70;;;;;;;;;;5052502;28;20024;-85
2023/11/12 09:37:29;;;;;;;8.73;4.30;;;;;;;;;;5051843;28;20753;-84
2023/11/12 09:39:54;;;;;;;10.32;4.32;;;;;;;;;;5053743;28;20075;-84
2023/11/12 09:42:21;;;;;;;13.07;4.80;;;;;;;;;;5053600;28;20025;-85
2023/11/12 09:44:47;;;;;;;7.30;4.13;;;;;;;;;;5039370;28;20048;-84
2023/11/12 09:47:33;;;;;;;9.65;4.57;;;;;;;;;;5051986;28;20060;-85
2023/11/12 09:49:59;;;;;;;8.38;4.50;;;;;;;;;;5038553;28;20025;-85
2023/11/12 09:52:25;;;;;;;9.43;4.90;;;;;;;;;;5052631;28;20103;-85
2023/11/12 09:54:50;;;;;;;10.35;4.88;;;;;;;;;;5047522;28;20888;-85
2023/11/12 09:57:15;;;;;;;12.38;4.82;;;;;;;;;;5042875;28;20656;-85
2023/11/12 09:59:43;;;;;;;9.63;4.25;;;;;;;;;;5051725;28;20024;-85
2023/11/12 10:02:10;;;;;;;8.10;4.30;;;;;;;;;;5052328;28;20025;-85
2023/11/12 10:04:35;;;;;;;9.88;4.65;;;;;;;;;;5051601;28;20028;-84
2023/11/12 10:07:01;;;;;;;9.20;4.38;;;;;;;;;;5053550;28;20017;-85
2023/11/12 10:09:28;;;;;;;11.07;4.78;;;;;;;;;;5051727;28;20025;-85
2023/11/12 10:11:53;;;;;;;11.27;4.40;;;;;;;;;;5053518;28;20410;-85
2023/11/12 10:14:22;;;;;;;8.85;4.53;;;;;;;;;;5051670;28;20024;-85
2023/11/12 10:16:48;;;;;;;8.90;4.45;;;;;;;;;;5052008;28;20032;-85
2023/11/12 10:19:14;;;;;;;9.30;4.95;;;;;;;;;;5051649;28;20464;-84
2023/11/12 10:21:55;;;;;;;10.70;5.18;;;;;;;;;;5052959;28;20025;-85
2023/11/12 10:24:25;;;;;;;10.50;5.38;;;;;;;;;;5051876;28;20067;-85
2023/11/12 10:26:53;;;;;;;10.25;4.55;;;;;;;;;;5052020;28;20107;-84
2023/11/12 10:29:22;;;;;;;11.60;5.18;;;;;;;;;;5052578;28;20028;-85
2023/11/12 10:31:50;;;;;;;13.30;5.50;;;;;;;;;;5051716;28;20082;-85
2023/11/12 10:34:16;;;;;;;13.63;5.35;;;;;;;;;;5050846;28;20021;-85
2023/11/12 10:37:00;;;;;;;12.88;6.05;;;;;;;;;;5050840;28;20028;-85
2023/11/12 10:39:32;;;;;;;12.45;5.80;;;;;;;;;;5050646;28;20021;-85
2023/11/12 10:41:58;;;;;;;15.63;5.93;;;;;;;;;;5052648;28;20469;-85
2023/11/12 10:44:25;;;;;;;14.10;5.63;;;;;;;;;;5051419;28;20043;-85
2023/11/12 10:46:53;;;;;;;9.77;5.35;;;;;;;;;;5052380;28;20048;-84
2023/11/12 10:49:20;;;;;;;17.20;5.38;;;;;;;;;;5052405;28;20100;-83
2023/11/12 10:51:46;;;;;;;15.90;5.68;;;;;;;;;;5052771;28;20027;-85
2023/11/12 10:54:13;;;;;;;12.85;5.13;;;;;;;;;;5050967;28;20075;-85
2023/11/12 10:56:39;;;;;;;11.63;5.28;;;;;;;;;;5051167;28;20017;-85
2023/11/12 10:59:05;;;;;;;9.95;4.82;;;;;;;;;;5051136;28;20658;-85
2023/11/12 11:01:32;;;;;;;10.25;5.10;;;;;;;;;;5051363;28;20063;-85
2023/11/12 11:04:00;;;;;;;9.57;5.28;;;;;;;;;;5051014;28;20053;-85
2023/11/12 11:06:26;;;;;;;11.07;5.35;;;;;;;;;;5051178;28;20024;-85
2023/11/12 11:08:55;;;;;;;13.27;5.43;;;;;;;;;;5052271;28;20734;-85
2023/11/12 11:11:22;;;;;;;13.38;5.47;;;;;;;;;;5051240;28;20048;-85
2023/11/12 11:13:48;;;;;;;8.23;4.93;;;;;;;;;;5051090;28;20028;-85
2023/11/12 11:16:34;;;;;;;10.43;5.20;;;;;;;;;;5051291;28;20033;-85
2023/11/12 11:18:59;;;;;;;12.05;5.50;;;;;;;;;;5050757;28;20341;-85
2023/11/12 11:21:27;;;;;;;14.93;5.53;;;;;;;;;;5051198;28;20021;-85
2023/11/12 11:23:53;;;;;;;8.77;4.78;;;;;;;;;;5050687;28;20480;-85
2023/11/12 11:26:27;;;;;;;10.80;4.57;;;;;;;;;;5050835;28;20025;-85
2023/11/12 11:29:02;;;;;;;11.32;4.53;;;;;;;;;;5050686;28;20029;-85
2023/11/12 11:31:28;;;;;;;11.13;4.55;;;;;;;;;;5050840;28;20017;-85
2023/11/12 11:33:53;;;;;;;10.82;5.57;;;;;;;;;;5050127;28;20502;-85
2023/11/12 11:36:20;;;;;;;11.90;5.40;;;;;;;;;;5037044;28;20040;-85
2023/11/12 11:41:36;;;;;;;14.77;4.95;;;;;;;;;;5040277;28;20041;-85
2023/11/12 11:44:30;;;;;;;8.55;4.50;;;;;;;;;;5051647;28;20082;-85
2023/11/12 11:47:14;;;;;;;16.08;4.78;;;;;;;;;;5054448;28;20044;-85
2023/11/12 11:50:04;;;;;;;10.88;4.38;;;;;;;;;;5052890;28;20050;-85
2023/11/12 11:52:29;;;;;;;10.13;4.13;;;;;;;;;;5054144;28;20465;-85
2023/11/12 11:54:59;;;;;;;11.30;4.32;;;;;;;;;;5054748;28;20116;-85
2023/11/12 11:57:26;;;;;;;11.50;4.97;;;;;;;;;;5054652;28;20443;-85
2023/11/12 11:59:52;;;;;;;12.13;4.35;;;;;;;;;;5054683;28;20020;-85
2023/11/12 12:02:18;;;;;;;12.02;4.55;;;;;;;;;;5054757;28;20028;-85
2023/11/12 12:04:43;;;;;;;9.40;4.43;;;;;;;;;;5054117;28;20033;-85
2023/11/12 12:07:16;;;;;;;10.00;4.15;;;;;;;;;;5054791;28;20499;-84
2023/11/12 12:09:42;;;;;;;10.18;4.22;;;;;;;;;;5052535;28;20022;-85
2023/11/12 12:12:07;;;;;;;10.50;4.07;;;;;;;;;;5055889;28;20024;-85
2023/11/12 12:14:35;;;;;;;10.82;4.15;;;;;;;;;;5054154;28;20032;-85
2023/11/12 12:17:06;;;;;;;9.68;3.65;;;;;;;;;;5054325;28;20032;-85
2023/11/12 12:19:31;;;;;;;7.95;4.22;;;;;;;;;;5054291;28;20017;-85
2023/11/12 12:21:56;;;;;;;11.90;4.93;;;;;;;;;;5054427;28;20075;-85
2023/11/12 12:24:21;;;;;;;11.07;4.25;;;;;;;;;;5069589;28;20033;-85
2023/11/12 12:26:47;;;;;;;16.27;4.95;;;;;;;;;;5055459;28;20032;-85
2023/11/12 12:29:13;;;;;;;7.45;3.72;;;;;;;;;;5053752;28;20115;-84
2023/11/12 12:31:39;;;;;;;11.40;4.28;;;;;;;;;;5054301;28;20059;-85
2023/11/12 12:34:04;;;;;;;7.35;3.72;;;;;;;;;;5053996;28;20428;-85
2023/11/12 12:36:29;;;;;;;11.30;4.22;;;;;;;;;;5055174;28;20053;-85
2023/11/12 12:38:56;;;;;;;7.68;3.95;;;;;;;;;;5048271;28;20052;-85
2023/11/12 12:41:24;;;;;;;16.48;4.45;;;;;;;;;;5053879;28;20457;-85
2023/11/12 12:43:54;;;;;;;9.75;3.70;;;;;;;;;;5055142;28;20025;-85
2023/11/12 12:46:20;;;;;;;9.45;4.45;;;;;;;;;;5053654;28;20025;-84
2023/11/12 12:48:55;;;;;;;10.77;3.65;;;;;;;;;;5053300;28;20063;-85
2023/11/12 12:51:21;;;;;;;11.90;4.28;;;;;;;;;;5053706;28;20040;-85
2023/11/12 12:53:48;;;;;;;11.38;4.43;;;;;;;;;;5053417;28;20025;-85
2023/11/12 12:56:16;;;;;;;12.00;4.40;;;;;;;;;;5040479;28;20009;-85
2023/11/12 12:58:46;;;;;;;15.93;3.97;;;;;;;;;;5053263;28;20040;-85
2023/11/12 13:01:12;;;;;;;8.82;3.67;;;;;;;;;;5052871;28;20036;-85
2023/11/12 13:03:39;;;;;;;8.52;3.78;;;;;;;;;;5053220;28;20021;-85
2023/11/12 13:06:08;;;;;;;7.40;4.10;;;;;;;;;;5054148;28;20078;-85
2023/11/12 13:08:33;;;;;;;10.75;4.40;;;;;;;;;;5053039;28;20040;-85
2023/11/12 13:11:00;;;;;;;16.27;5.60;;;;;;;;;;5052575;28;20025;-85
2023/11/12 13:13:27;;;;;;;30.92;9.10;;;;;;;;;;5053209;28;20380;-85
2023/11/12 13:15:53;;;;;;;20.77;7.10;;;;;;;;;;5053249;28;20115;-85
2023/11/12 13:18:19;;;;;;;16.20;6.43;;;;;;;;;;5054222;28;20110;-85
2023/11/12 13:20:44;;;;;;;12.25;5.88;;;;;;;;;;5053220;28;20025;-85
2023/11/12 13:23:10;;;;;;;10.32;5.05;;;;;;;;;;5052986;28;20021;-85
2023/11/12 13:25:36;;;;;;;8.98;4.53;;;;;;;;;;5054052;28;20469;-85
2023/11/12 13:28:02;;;;;;;13.05;5.00;;;;;;;;;;5053222;28;20036;-85
2023/11/12 13:30:27;;;;;;;12.40;4.80;;;;;;;;;;5054036;28;20025;-84
2023/11/12 13:32:56;;;;;;;12.13;4.95;;;;;;;;;;5054201;28;20020;-85
2023/11/12 13:35:21;;;;;;;17.65;5.03;;;;;;;;;;5054247;28;20100;-85
2023/11/12 13:37:46;;;;;;;9.63;4.57;;;;;;;;;;5052676;28;20021;-85
2023/11/12 13:40:14;;;;;;;7.40;4.18;;;;;;;;;;5052764;28;20028;-85
2023/11/12 13:42:45;;;;;;;9.63;3.33;;;;;;;;;;5052934;28;20413;-85
2023/11/12 13:45:12;;;;;;;7.10;3.30;;;;;;;;;;5052426;28;20416;-85
2023/11/12 13:47:37;;;;;;;8.95;3.08;;;;;;;;;;5052023;28;20036;-86
2023/11/12 13:50:03;;;;;;;7.53;3.17;;;;;;;;;;5052273;28;20021;-85
2023/11/12 13:52:28;;;;;;;7.95;2.70;;;;;;;;;;5052499;28;20028;-86
2023/11/12 13:54:53;;;;;;;6.32;2.40;;;;;;;;;;5052619;28;20024;-85
2023/11/12 13:57:19;;;;;;;5.43;2.35;;;;;;;;;;5053727;28;20048;-85
2023/11/12 13:59:45;;;;;;;9.63;2.72;;;;;;;;;;5049234;28;20036;-85
2023/11/12 14:02:11;;;;;;;5.38;2.13;;;;;;;;;;5052408;28;20522;-84
2023/11/12 14:04:37;;;;;;;9.60;3.28;;;;;;;;;;5051317;28;20025;-85
2023/11/12 14:07:04;;;;;;;5.55;3.05;;;;;;;;;;5048992;28;20021;-85
2023/11/12 14:09:33;;;;;;;8.65;3.53;;;;;;;;;;5045396;28;20039;-85
2023/11/12 14:12:07;;;;;;;10.90;3.28;;;;;;;;;;5052068;28;20025;-85
2023/11/12 14:14:36;;;;;;;8.27;2.80;;;;;;;;;;5051558;28;20025;-85
2023/11/12 14:17:07;;;;;;;7.25;2.85;;;;;;;;;;5052266;28;20017;-85
2023/11/12 14:19:35;;;;;;;8.20;2.75;;;;;;;;;;5051448;28;20031;-85
2023/11/12 14:22:01;;;;;;;6.78;2.72;;;;;;;;;;5051855;28;20372;-86
2023/11/12 14:24:26;;;;;;;10.05;3.05;;;;;;;;;;5051436;28;20024;-85
2023/11/12 14:26:52;;;;;;;8.50;2.33;;;;;;;;;;5051712;28;20017;-85
2023/11/12 14:29:19;;;;;;;12.23;3.08;;;;;;;;;;5051416;28;20016;-85
2023/11/12 14:31:44;;;;;;;6.05;2.75;;;;;;;;;;5053041;28;20032;-86
2023/11/12 14:34:12;;;;;;;7.05;2.63;;;;;;;;;;5050282;28;20346;-85
2023/11/12 14:36:45;;;;;;;5.35;2.40;;;;;;;;;;5040518;28;20436;-85